sensor_id;sensor_type;location;lat;lon;timestamp;temperature;humidity
21108;DHT22;10712;52.944;9.098;2023-05-16T00:00:24;11.40;80.60
21108;DHT22;10712;52.944;9.098;2023-05-16T00:02:50;11.40;80.60
21108;DHT22;10712;52.944;9.098;2023-05-16T00:05:16;11.40;80.50
21108;DHT22;10712;52.944;9.098;2023-05-16T00:07:46;11.40;80.30
21108;DHT22;10712;52.944;9.098;2023-05-16T00:10:12;11.40;80.20
21108;DHT22;10712;52.944;9.098;2023-05-16T00:12:38;11.40;80.00
21108;DHT22;10712;52.944;9.098;2023-05-16T00:15:06;11.30;79.80
21108;DHT22;10712;52.944;9.098;2023-05-16T00:17:33;11.30;79.80
21108;DHT22;10712;52.944;9.098;2023-05-16T00:20:00;11.30;79.80
21108;DHT22;10712;52.944;9.098;2023-05-16T00:22:36;11.30;79.90
21108;DHT22;10712;52.944;9.098;2023-05-16T00:25:02;11.30;79.90
21108;DHT22;10712;52.944;9.098;2023-05-16T00:27:28;11.30;80.00
21108;DHT22;10712;52.944;9.098;2023-05-16T00:29:55;11.30;80.10
21108;DHT22;10712;52.944;9.098;2023-05-16T00:32:20;11.30;80.10
21108;DHT22;10712;52.944;9.098;2023-05-16T00:34:46;11.30;80.20
21108;DHT22;10712;52.944;9.098;2023-05-16T00:37:13;11.30;80.20
21108;DHT22;10712;52.944;9.098;2023-05-16T00:39:39;11.30;80.40
21108;DHT22;10712;52.944;9.098;2023-05-16T00:42:05;11.30;80.60
21108;DHT22;10712;52.944;9.098;2023-05-16T00:44:31;11.30;80.70
21108;DHT22;10712;52.944;9.098;2023-05-16T00:46:57;11.30;81.00
21108;DHT22;10712;52.944;9.098;2023-05-16T00:49:24;11.30;81.20
21108;DHT22;10712;52.944;9.098;2023-05-16T00:51:51;11.30;81.30
21108;DHT22;10712;52.944;9.098;2023-05-16T00:54:21;11.30;81.50
21108;DHT22;10712;52.944;9.098;2023-05-16T00:56:50;11.30;81.60
21108;DHT22;10712;52.944;9.098;2023-05-16T00:59:16;11.30;81.70
21108;DHT22;10712;52.944;9.098;2023-05-16T01:01:45;11.30;81.90
21108;DHT22;10712;52.944;9.098;2023-05-16T01:04:12;11.20;82.20
21108;DHT22;10712;52.944;9.098;2023-05-16T01:06:38;11.20;82.30
21108;DHT22;10712;52.944;9.098;2023-05-16T01:09:05;11.20;82.50
21108;DHT22;10712;52.944;9.098;2023-05-16T01:11:45;11.20;82.50
21108;DHT22;10712;52.944;9.098;2023-05-16T01:20:52;11.20;82.80
21108;DHT22;10712;52.944;9.098;2023-05-16T01:23:51;11.10;82.80
21108;DHT22;10712;52.944;9.098;2023-05-16T01:26:28;11.20;82.60
21108;DHT22;10712;52.944;9.098;2023-05-16T01:28:55;11.10;82.30
21108;DHT22;10712;52.944;9.098;2023-05-16T01:31:22;11.10;82.30
21108;DHT22;10712;52.944;9.098;2023-05-16T01:33:50;11.10;82.20
21108;DHT22;10712;52.944;9.098;2023-05-16T01:36:23;11.00;82.20
21108;DHT22;10712;52.944;9.098;2023-05-16T01:42:01;11.00;82.00
21108;DHT22;10712;52.944;9.098;2023-05-16T01:47:19;11.00;81.90
21108;DHT22;10712;52.944;9.098;2023-05-16T01:55:28;10.90;81.60
21108;DHT22;10712;52.944;9.098;2023-05-16T01:58:02;10.90;81.50
21108;DHT22;10712;52.944;9.098;2023-05-16T02:00:30;10.90;81.40
21108;DHT22;10712;52.944;9.098;2023-05-16T02:02:59;10.90;81.30
21108;DHT22;10712;52.944;9.098;2023-05-16T02:05:25;10.90;81.10
21108;DHT22;10712;52.944;9.098;2023-05-16T02:07:51;10.90;81.00
21108;DHT22;10712;52.944;9.098;2023-05-16T02:10:17;10.90;80.90
21108;DHT22;10712;52.944;9.098;2023-05-16T02:12:44;10.80;80.90
21108;DHT22;10712;52.944;9.098;2023-05-16T02:15:10;10.90;80.90
21108;DHT22;10712;52.944;9.098;2023-05-16T02:17:37;10.80;80.80
21108;DHT22;10712;52.944;9.098;2023-05-16T02:20:03;10.80;80.50
21108;DHT22;10712;52.944;9.098;2023-05-16T02:22:32;10.80;80.20
21108;DHT22;10712;52.944;9.098;2023-05-16T02:25:00;10.80;80.20
21108;DHT22;10712;52.944;9.098;2023-05-16T02:27:28;10.80;80.20
21108;DHT22;10712;52.944;9.098;2023-05-16T02:29:54;10.80;80.20
21108;DHT22;10712;52.944;9.098;2023-05-16T02:32:19;10.80;80.10
21108;DHT22;10712;52.944;9.098;2023-05-16T02:34:45;10.80;80.30
21108;DHT22;10712;52.944;9.098;2023-05-16T02:37:11;10.80;80.20
21108;DHT22;10712;52.944;9.098;2023-05-16T02:39:37;10.80;80.30
21108;DHT22;10712;52.944;9.098;2023-05-16T02:42:04;10.80;80.30
21108;DHT22;10712;52.944;9.098;2023-05-16T02:44:31;10.80;80.50
21108;DHT22;10712;52.944;9.098;2023-05-16T02:46:57;10.80;80.60
21108;DHT22;10712;52.944;9.098;2023-05-16T02:49:23;10.80;80.60
21108;DHT22;10712;52.944;9.098;2023-05-16T02:51:49;10.70;80.30
21108;DHT22;10712;52.944;9.098;2023-05-16T02:54:15;10.70;80.20
21108;DHT22;10712;52.944;9.098;2023-05-16T02:56:41;10.70;79.80
21108;DHT22;10712;52.944;9.098;2023-05-16T02:59:06;10.70;79.90
21108;DHT22;10712;52.944;9.098;2023-05-16T03:01:33;10.70;79.90
21108;DHT22;10712;52.944;9.098;2023-05-16T03:03:59;10.70;80.10
21108;DHT22;10712;52.944;9.098;2023-05-16T03:06:25;10.70;80.20
21108;DHT22;10712;52.944;9.098;2023-05-16T03:08:50;10.70;80.20
21108;DHT22;10712;52.944;9.098;2023-05-16T03:11:17;10.70;80.00
21108;DHT22;10712;52.944;9.098;2023-05-16T03:13:50;10.70;79.80
21108;DHT22;10712;52.944;9.098;2023-05-16T03:16:16;10.70;79.50
21108;DHT22;10712;52.944;9.098;2023-05-16T03:18:42;10.70;79.40
21108;DHT22;10712;52.944;9.098;2023-05-16T03:21:07;10.60;79.40
21108;DHT22;10712;52.944;9.098;2023-05-16T03:23:33;10.60;79.50
21108;DHT22;10712;52.944;9.098;2023-05-16T03:26:00;10.60;79.50
21108;DHT22;10712;52.944;9.098;2023-05-16T03:28:26;10.60;79.30
21108;DHT22;10712;52.944;9.098;2023-05-16T03:30:53;10.50;79.10
21108;DHT22;10712;52.944;9.098;2023-05-16T03:33:19;10.50;78.70
21108;DHT22;10712;52.944;9.098;2023-05-16T03:35:45;10.50;78.40
21108;DHT22;10712;52.944;9.098;2023-05-16T03:38:12;10.40;78.50
21108;DHT22;10712;52.944;9.098;2023-05-16T03:40:38;10.40;78.30
21108;DHT22;10712;52.944;9.098;2023-05-16T03:43:04;10.40;78.30
21108;DHT22;10712;52.944;9.098;2023-05-16T03:45:30;10.30;78.20
21108;DHT22;10712;52.944;9.098;2023-05-16T03:47:56;10.20;78.20
21108;DHT22;10712;52.944;9.098;2023-05-16T03:50:22;10.20;78.40
21108;DHT22;10712;52.944;9.098;2023-05-16T03:52:48;10.20;78.40
21108;DHT22;10712;52.944;9.098;2023-05-16T03:55:14;10.20;78.30
21108;DHT22;10712;52.944;9.098;2023-05-16T03:57:41;10.10;78.20
21108;DHT22;10712;52.944;9.098;2023-05-16T04:00:08;10.10;78.50
21108;DHT22;10712;52.944;9.098;2023-05-16T04:02:39;10.10;78.50
21108;DHT22;10712;52.944;9.098;2023-05-16T04:05:08;10.00;78.60
21108;DHT22;10712;52.944;9.098;2023-05-16T04:07:36;10.00;78.60
21108;DHT22;10712;52.944;9.098;2023-05-16T04:10:03;10.00;78.50
21108;DHT22;10712;52.944;9.098;2023-05-16T04:12:29;10.00;78.70
21108;DHT22;10712;52.944;9.098;2023-05-16T04:14:55;9.90;78.70
21108;DHT22;10712;52.944;9.098;2023-05-16T04:17:20;9.90;78.90
21108;DHT22;10712;52.944;9.098;2023-05-16T04:19:46;9.90;79.10
21108;DHT22;10712;52.944;9.098;2023-05-16T04:22:12;9.90;79.20
21108;DHT22;10712;52.944;9.098;2023-05-16T04:24:38;9.80;79.40
21108;DHT22;10712;52.944;9.098;2023-05-16T04:27:04;9.80;79.60
21108;DHT22;10712;52.944;9.098;2023-05-16T04:29:33;9.80;79.60
21108;DHT22;10712;52.944;9.098;2023-05-16T04:32:00;9.80;79.80
21108;DHT22;10712;52.944;9.098;2023-05-16T04:34:26;9.70;79.80
21108;DHT22;10712;52.944;9.098;2023-05-16T04:36:53;9.70;79.70
21108;DHT22;10712;52.944;9.098;2023-05-16T04:39:19;9.70;79.70
21108;DHT22;10712;52.944;9.098;2023-05-16T04:41:45;9.70;79.90
21108;DHT22;10712;52.944;9.098;2023-05-16T04:44:11;9.70;79.90
21108;DHT22;10712;52.944;9.098;2023-05-16T04:46:37;9.70;80.10
21108;DHT22;10712;52.944;9.098;2023-05-16T04:49:03;9.70;80.10
21108;DHT22;10712;52.944;9.098;2023-05-16T04:51:28;9.70;79.90
21108;DHT22;10712;52.944;9.098;2023-05-16T04:53:56;9.60;79.80
21108;DHT22;10712;52.944;9.098;2023-05-16T04:56:21;9.60;79.90
21108;DHT22;10712;52.944;9.098;2023-05-16T04:58:47;9.60;79.80
21108;DHT22;10712;52.944;9.098;2023-05-16T05:01:13;9.60;79.60
21108;DHT22;10712;52.944;9.098;2023-05-16T05:03:38;9.60;79.70
21108;DHT22;10712;52.944;9.098;2023-05-16T05:06:04;9.60;79.50
21108;DHT22;10712;52.944;9.098;2023-05-16T05:08:31;9.60;79.30
21108;DHT22;10712;52.944;9.098;2023-05-16T05:10:57;9.50;79.30
21108;DHT22;10712;52.944;9.098;2023-05-16T05:13:22;9.50;79.30
21108;DHT22;10712;52.944;9.098;2023-05-16T05:15:48;9.50;79.50
21108;DHT22;10712;52.944;9.098;2023-05-16T05:18:16;9.50;79.40
21108;DHT22;10712;52.944;9.098;2023-05-16T05:20:43;9.50;79.00
21108;DHT22;10712;52.944;9.098;2023-05-16T05:23:09;9.40;79.30
21108;DHT22;10712;52.944;9.098;2023-05-16T05:25:35;9.40;79.20
21108;DHT22;10712;52.944;9.098;2023-05-16T05:28:04;9.40;79.40
21108;DHT22;10712;52.944;9.098;2023-05-16T05:30:30;9.40;79.60
21108;DHT22;10712;52.944;9.098;2023-05-16T05:32:56;9.50;79.60
21108;DHT22;10712;52.944;9.098;2023-05-16T05:35:21;9.50;79.30
21108;DHT22;10712;52.944;9.098;2023-05-16T05:37:47;9.50;79.40
21108;DHT22;10712;52.944;9.098;2023-05-16T05:40:13;9.60;79.30
21108;DHT22;10712;52.944;9.098;2023-05-16T05:42:39;9.60;79.10
21108;DHT22;10712;52.944;9.098;2023-05-16T05:45:05;9.70;79.00
21108;DHT22;10712;52.944;9.098;2023-05-16T05:47:31;9.70;78.90
21108;DHT22;10712;52.944;9.098;2023-05-16T05:49:58;9.70;78.90
21108;DHT22;10712;52.944;9.098;2023-05-16T05:52:24;9.80;78.90
21108;DHT22;10712;52.944;9.098;2023-05-16T05:54:50;9.80;78.90
21108;DHT22;10712;52.944;9.098;2023-05-16T05:57:16;9.90;79.00
21108;DHT22;10712;52.944;9.098;2023-05-16T05:59:42;10.00;78.90
21108;DHT22;10712;52.944;9.098;2023-05-16T06:02:08;10.00;78.40
21108;DHT22;10712;52.944;9.098;2023-05-16T06:04:33;10.10;77.80
21108;DHT22;10712;52.944;9.098;2023-05-16T06:06:59;10.10;76.90
21108;DHT22;10712;52.944;9.098;2023-05-16T06:09:25;10.10;76.50
21108;DHT22;10712;52.944;9.098;2023-05-16T06:11:51;10.10;76.70
21108;DHT22;10712;52.944;9.098;2023-05-16T06:14:16;10.10;76.40
21108;DHT22;10712;52.944;9.098;2023-05-16T06:16:42;10.10;76.20
21108;DHT22;10712;52.944;9.098;2023-05-16T06:19:08;10.20;76.30
21108;DHT22;10712;52.944;9.098;2023-05-16T06:21:34;10.30;76.50
21108;DHT22;10712;52.944;9.098;2023-05-16T06:24:00;10.30;76.60
21108;DHT22;10712;52.944;9.098;2023-05-16T06:26:25;10.40;75.90
21108;DHT22;10712;52.944;9.098;2023-05-16T06:28:51;10.40;75.60
21108;DHT22;10712;52.944;9.098;2023-05-16T06:31:17;10.50;75.50
21108;DHT22;10712;52.944;9.098;2023-05-16T06:33:43;10.50;74.80
21108;DHT22;10712;52.944;9.098;2023-05-16T06:36:09;10.50;74.50
21108;DHT22;10712;52.944;9.098;2023-05-16T06:38:35;10.50;74.70
21108;DHT22;10712;52.944;9.098;2023-05-16T06:41:01;10.50;74.90
21108;DHT22;10712;52.944;9.098;2023-05-16T06:43:26;10.50;74.70
21108;DHT22;10712;52.944;9.098;2023-05-16T06:45:52;10.60;74.90
21108;DHT22;10712;52.944;9.098;2023-05-16T06:48:18;10.70;73.90
21108;DHT22;10712;52.944;9.098;2023-05-16T06:50:50;10.70;74.20
21108;DHT22;10712;52.944;9.098;2023-05-16T06:53:17;10.70;74.30
21108;DHT22;10712;52.944;9.098;2023-05-16T06:55:43;10.80;74.30
21108;DHT22;10712;52.944;9.098;2023-05-16T06:58:09;10.80;74.00
21108;DHT22;10712;52.944;9.098;2023-05-16T07:00:35;10.90;73.90
21108;DHT22;10712;52.944;9.098;2023-05-16T07:03:02;10.90;73.70
21108;DHT22;10712;52.944;9.098;2023-05-16T07:05:28;10.90;72.60
21108;DHT22;10712;52.944;9.098;2023-05-16T07:07:54;11.00;73.30
21108;DHT22;10712;52.944;9.098;2023-05-16T07:10:20;11.10;73.60
21108;DHT22;10712;52.944;9.098;2023-05-16T07:12:46;11.10;73.50
21108;DHT22;10712;52.944;9.098;2023-05-16T07:15:13;11.20;73.70
21108;DHT22;10712;52.944;9.098;2023-05-16T07:17:39;11.30;73.50
21108;DHT22;10712;52.944;9.098;2023-05-16T07:20:05;11.30;73.30
21108;DHT22;10712;52.944;9.098;2023-05-16T07:22:32;11.30;72.90
21108;DHT22;10712;52.944;9.098;2023-05-16T07:24:58;11.40;72.90
21108;DHT22;10712;52.944;9.098;2023-05-16T07:27:28;11.40;72.80
21108;DHT22;10712;52.944;9.098;2023-05-16T07:29:55;11.50;72.60
21108;DHT22;10712;52.944;9.098;2023-05-16T07:32:21;11.50;72.70
21108;DHT22;10712;52.944;9.098;2023-05-16T07:34:46;11.60;70.70
21108;DHT22;10712;52.944;9.098;2023-05-16T07:37:12;11.60;70.20
21108;DHT22;10712;52.944;9.098;2023-05-16T07:39:39;11.60;70.00
21108;DHT22;10712;52.944;9.098;2023-05-16T07:42:08;11.60;70.40
21108;DHT22;10712;52.944;9.098;2023-05-16T07:44:34;11.70;70.30
21108;DHT22;10712;52.944;9.098;2023-05-16T07:47:00;11.70;70.30
21108;DHT22;10712;52.944;9.098;2023-05-16T07:49:26;11.70;70.50
21108;DHT22;10712;52.944;9.098;2023-05-16T07:51:52;11.80;70.70
21108;DHT22;10712;52.944;9.098;2023-05-16T07:54:18;11.80;69.80
21108;DHT22;10712;52.944;9.098;2023-05-16T07:56:43;11.90;69.10
21108;DHT22;10712;52.944;9.098;2023-05-16T07:59:09;12.00;68.80
21108;DHT22;10712;52.944;9.098;2023-05-16T08:01:35;12.10;68.80
21108;DHT22;10712;52.944;9.098;2023-05-16T08:04:01;12.20;68.90
21108;DHT22;10712;52.944;9.098;2023-05-16T08:06:27;12.30;68.30
21108;DHT22;10712;52.944;9.098;2023-05-16T08:08:54;12.30;67.60
21108;DHT22;10712;52.944;9.098;2023-05-16T08:11:20;12.30;68.30
21108;DHT22;10712;52.944;9.098;2023-05-16T08:13:47;12.40;67.70
21108;DHT22;10712;52.944;9.098;2023-05-16T08:16:14;12.40;67.80
21108;DHT22;10712;52.944;9.098;2023-05-16T08:18:42;12.30;66.80
21108;DHT22;10712;52.944;9.098;2023-05-16T08:21:07;12.30;66.00
21108;DHT22;10712;52.944;9.098;2023-05-16T08:23:34;12.30;66.70
21108;DHT22;10712;52.944;9.098;2023-05-16T08:26:00;12.20;66.60
21108;DHT22;10712;52.944;9.098;2023-05-16T08:28:28;12.20;67.10
21108;DHT22;10712;52.944;9.098;2023-05-16T08:30:54;12.30;68.10
21108;DHT22;10712;52.944;9.098;2023-05-16T08:33:19;12.30;68.60
21108;DHT22;10712;52.944;9.098;2023-05-16T08:35:45;12.50;66.60
21108;DHT22;10712;52.944;9.098;2023-05-16T08:38:13;12.40;65.30
21108;DHT22;10712;52.944;9.098;2023-05-16T08:40:39;12.30;65.70
21108;DHT22;10712;52.944;9.098;2023-05-16T08:43:05;12.20;66.30
21108;DHT22;10712;52.944;9.098;2023-05-16T08:45:31;12.10;66.90
21108;DHT22;10712;52.944;9.098;2023-05-16T08:47:59;12.10;67.30
21108;DHT22;10712;52.944;9.098;2023-05-16T08:50:30;12.10;66.70
21108;DHT22;10712;52.944;9.098;2023-05-16T08:52:56;12.10;67.30
21108;DHT22;10712;52.944;9.098;2023-05-16T08:55:23;12.10;67.20
21108;DHT22;10712;52.944;9.098;2023-05-16T08:57:51;12.10;67.20
21108;DHT22;10712;52.944;9.098;2023-05-16T09:00:19;12.20;68.00
21108;DHT22;10712;52.944;9.098;2023-05-16T09:02:47;12.30;67.90
21108;DHT22;10712;52.944;9.098;2023-05-16T09:05:15;12.40;68.70
21108;DHT22;10712;52.944;9.098;2023-05-16T09:07:42;12.50;68.90
21108;DHT22;10712;52.944;9.098;2023-05-16T09:10:11;12.70;68.60
21108;DHT22;10712;52.944;9.098;2023-05-16T09:12:39;12.80;68.80
21108;DHT22;10712;52.944;9.098;2023-05-16T09:15:07;12.90;69.60
21108;DHT22;10712;52.944;9.098;2023-05-16T09:17:45;12.80;68.50
21108;DHT22;10712;52.944;9.098;2023-05-16T09:20:15;12.60;68.40
21108;DHT22;10712;52.944;9.098;2023-05-16T09:22:58;12.40;68.20
21108;DHT22;10712;52.944;9.098;2023-05-16T09:25:25;12.30;69.00
21108;DHT22;10712;52.944;9.098;2023-05-16T09:28:00;12.30;69.90
21108;DHT22;10712;52.944;9.098;2023-05-16T09:30:31;12.40;70.80
21108;DHT22;10712;52.944;9.098;2023-05-16T09:32:58;12.50;70.10
21108;DHT22;10712;52.944;9.098;2023-05-16T09:35:24;12.60;67.40
21108;DHT22;10712;52.944;9.098;2023-05-16T09:37:50;12.50;67.50
21108;DHT22;10712;52.944;9.098;2023-05-16T09:40:22;12.40;65.60
21108;DHT22;10712;52.944;9.098;2023-05-16T09:43:04;12.30;66.50
21108;DHT22;10712;52.944;9.098;2023-05-16T09:45:31;12.40;68.10
21108;DHT22;10712;52.944;9.098;2023-05-16T09:48:04;12.50;68.00
21108;DHT22;10712;52.944;9.098;2023-05-16T09:50:35;12.60;67.70
21108;DHT22;10712;52.944;9.098;2023-05-16T09:53:03;12.80;65.90
21108;DHT22;10712;52.944;9.098;2023-05-16T09:55:30;12.90;65.70
21108;DHT22;10712;52.944;9.098;2023-05-16T09:57:57;13.00;64.50
21108;DHT22;10712;52.944;9.098;2023-05-16T10:00:31;13.20;63.70
21108;DHT22;10712;52.944;9.098;2023-05-16T10:03:00;13.20;63.30
21108;DHT22;10712;52.944;9.098;2023-05-16T10:05:29;13.20;62.40
21108;DHT22;10712;52.944;9.098;2023-05-16T10:07:56;13.10;63.00
21108;DHT22;10712;52.944;9.098;2023-05-16T10:10:23;13.10;63.50
21108;DHT22;10712;52.944;9.098;2023-05-16T10:12:50;13.20;64.10
21108;DHT22;10712;52.944;9.098;2023-05-16T10:15:17;13.30;64.40
21108;DHT22;10712;52.944;9.098;2023-05-16T10:17:49;13.50;63.50
21108;DHT22;10712;52.944;9.098;2023-05-16T10:20:17;13.60;63.50
21108;DHT22;10712;52.944;9.098;2023-05-16T10:22:46;13.70;63.10
21108;DHT22;10712;52.944;9.098;2023-05-16T10:25:35;13.70;62.30
21108;DHT22;10712;52.944;9.098;2023-05-16T10:28:07;13.70;60.00
21108;DHT22;10712;52.944;9.098;2023-05-16T10:30:33;13.70;60.00
21108;DHT22;10712;52.944;9.098;2023-05-16T10:33:03;13.80;59.50
21108;DHT22;10712;52.944;9.098;2023-05-16T10:35:30;13.90;58.30
21108;DHT22;10712;52.944;9.098;2023-05-16T10:37:58;14.10;59.70
21108;DHT22;10712;52.944;9.098;2023-05-16T10:40:25;14.20;57.20
21108;DHT22;10712;52.944;9.098;2023-05-16T10:43:01;14.20;57.40
21108;DHT22;10712;52.944;9.098;2023-05-16T10:45:28;14.00;58.80
21108;DHT22;10712;52.944;9.098;2023-05-16T10:47:56;13.70;59.40
21108;DHT22;10712;52.944;9.098;2023-05-16T10:55:39;12.70;62.40
21108;DHT22;10712;52.944;9.098;2023-05-16T10:58:08;12.50;64.00
21108;DHT22;10712;52.944;9.098;2023-05-16T11:00:34;12.10;64.80
21108;DHT22;10712;52.944;9.098;2023-05-16T11:03:04;11.80;67.30
21108;DHT22;10712;52.944;9.098;2023-05-16T11:05:30;11.60;68.80
21108;DHT22;10712;52.944;9.098;2023-05-16T11:08:05;11.30;69.60
21108;DHT22;10712;52.944;9.098;2023-05-16T11:10:31;11.20;70.50
21108;DHT22;10712;52.944;9.098;2023-05-16T11:13:03;11.10;71.30
21108;DHT22;10712;52.944;9.098;2023-05-16T11:15:32;11.20;72.10
21108;DHT22;10712;52.944;9.098;2023-05-16T11:18:15;11.30;72.60
21108;DHT22;10712;52.944;9.098;2023-05-16T11:20:42;11.40;72.40
21108;DHT22;10712;52.944;9.098;2023-05-16T11:23:21;11.70;72.80
21108;DHT22;10712;52.944;9.098;2023-05-16T11:25:56;11.80;70.60
21108;DHT22;10712;52.944;9.098;2023-05-16T11:28:25;12.00;71.50
21108;DHT22;10712;52.944;9.098;2023-05-16T11:30:57;12.30;70.90
21108;DHT22;10712;52.944;9.098;2023-05-16T11:33:24;12.40;67.80
21108;DHT22;10712;52.944;9.098;2023-05-16T11:36:03;12.70;66.60
21108;DHT22;10712;52.944;9.098;2023-05-16T11:38:31;12.80;64.40
21108;DHT22;10712;52.944;9.098;2023-05-16T11:41:05;12.80;62.40
21108;DHT22;10712;52.944;9.098;2023-05-16T11:43:40;12.70;63.70
21108;DHT22;10712;52.944;9.098;2023-05-16T11:46:10;12.60;63.80
21108;DHT22;10712;52.944;9.098;2023-05-16T11:48:40;12.60;65.00
21108;DHT22;10712;52.944;9.098;2023-05-16T11:51:06;12.40;65.10
21108;DHT22;10712;52.944;9.098;2023-05-16T11:53:34;12.30;65.00
21108;DHT22;10712;52.944;9.098;2023-05-16T11:56:00;12.30;64.80
21108;DHT22;10712;52.944;9.098;2023-05-16T11:58:27;12.30;66.00
21108;DHT22;10712;52.944;9.098;2023-05-16T12:00:53;12.40;66.20
21108;DHT22;10712;52.944;9.098;2023-05-16T12:03:19;12.50;67.10
21108;DHT22;10712;52.944;9.098;2023-05-16T12:05:52;12.60;67.00
21108;DHT22;10712;52.944;9.098;2023-05-16T12:08:20;12.80;66.30
21108;DHT22;10712;52.944;9.098;2023-05-16T12:10:50;13.00;66.40
21108;DHT22;10712;52.944;9.098;2023-05-16T12:13:18;13.10;66.30
21108;DHT22;10712;52.944;9.098;2023-05-16T12:15:46;13.30;66.30
21108;DHT22;10712;52.944;9.098;2023-05-16T12:18:13;13.40;64.10
21108;DHT22;10712;52.944;9.098;2023-05-16T12:20:40;13.50;64.30
21108;DHT22;10712;52.944;9.098;2023-05-16T12:23:13;13.50;64.90
21108;DHT22;10712;52.944;9.098;2023-05-16T12:25:45;13.60;65.00
21108;DHT22;10712;52.944;9.098;2023-05-16T12:28:12;13.60;65.40
21108;DHT22;10712;52.944;9.098;2023-05-16T12:30:41;13.70;65.40
21108;DHT22;10712;52.944;9.098;2023-05-16T12:33:10;13.50;63.40
21108;DHT22;10712;52.944;9.098;2023-05-16T12:35:41;13.10;65.50
21108;DHT22;10712;52.944;9.098;2023-05-16T12:38:13;12.70;65.70
21108;DHT22;10712;52.944;9.098;2023-05-16T12:40:42;12.30;67.70
21108;DHT22;10712;52.944;9.098;2023-05-16T12:43:34;12.00;68.00
21108;DHT22;10712;52.944;9.098;2023-05-16T12:46:00;11.70;69.50
21108;DHT22;10712;52.944;9.098;2023-05-16T12:48:32;11.60;70.00
21108;DHT22;10712;52.944;9.098;2023-05-16T12:51:13;11.50;71.00
21108;DHT22;10712;52.944;9.098;2023-05-16T12:53:47;11.40;71.90
21108;DHT22;10712;52.944;9.098;2023-05-16T12:56:14;11.40;72.00
21108;DHT22;10712;52.944;9.098;2023-05-16T12:58:41;11.50;72.00
21108;DHT22;10712;52.944;9.098;2023-05-16T13:01:08;11.60;71.50
21108;DHT22;10712;52.944;9.098;2023-05-16T13:03:34;11.70;71.90
21108;DHT22;10712;52.944;9.098;2023-05-16T13:06:01;11.80;72.30
21108;DHT22;10712;52.944;9.098;2023-05-16T13:08:28;12.00;72.00
21108;DHT22;10712;52.944;9.098;2023-05-16T13:10:54;12.10;72.00
21108;DHT22;10712;52.944;9.098;2023-05-16T13:13:21;12.30;72.40
21108;DHT22;10712;52.944;9.098;2023-05-16T13:15:46;12.50;73.00
21108;DHT22;10712;52.944;9.098;2023-05-16T13:18:15;12.60;69.00
21108;DHT22;10712;52.944;9.098;2023-05-16T13:20:40;12.60;70.90
21108;DHT22;10712;52.944;9.098;2023-05-16T13:23:06;12.70;70.60
21108;DHT22;10712;52.944;9.098;2023-05-16T13:25:32;12.70;70.30
21108;DHT22;10712;52.944;9.098;2023-05-16T13:27:58;12.70;68.70
21108;DHT22;10712;52.944;9.098;2023-05-16T13:30:24;12.70;69.60
21108;DHT22;10712;52.944;9.098;2023-05-16T13:32:50;12.80;69.20
21108;DHT22;10712;52.944;9.098;2023-05-16T13:35:17;12.90;70.00
21108;DHT22;10712;52.944;9.098;2023-05-16T13:37:43;13.00;69.20
21108;DHT22;10712;52.944;9.098;2023-05-16T13:40:09;13.10;69.00
21108;DHT22;10712;52.944;9.098;2023-05-16T13:42:36;13.20;68.70
21108;DHT22;10712;52.944;9.098;2023-05-16T13:45:03;13.40;67.90
21108;DHT22;10712;52.944;9.098;2023-05-16T13:47:30;13.40;66.00
21108;DHT22;10712;52.944;9.098;2023-05-16T13:49:59;13.40;66.90
21108;DHT22;10712;52.944;9.098;2023-05-16T13:52:32;13.30;66.50
21108;DHT22;10712;52.944;9.098;2023-05-16T13:54:58;13.30;66.10
21108;DHT22;10712;52.944;9.098;2023-05-16T13:57:23;13.20;65.80
21108;DHT22;10712;52.944;9.098;2023-05-16T13:59:52;13.10;66.10
21108;DHT22;10712;52.944;9.098;2023-05-16T14:02:18;13.00;66.90
21108;DHT22;10712;52.944;9.098;2023-05-16T14:04:44;13.00;67.00
21108;DHT22;10712;52.944;9.098;2023-05-16T14:07:09;12.90;67.30
21108;DHT22;10712;52.944;9.098;2023-05-16T14:09:35;12.80;67.10
21108;DHT22;10712;52.944;9.098;2023-05-16T14:12:06;12.80;67.60
21108;DHT22;10712;52.944;9.098;2023-05-16T14:14:36;12.70;67.60
21108;DHT22;10712;52.944;9.098;2023-05-16T14:17:02;12.80;67.90
21108;DHT22;10712;52.944;9.098;2023-05-16T14:19:31;12.70;66.40
21108;DHT22;10712;52.944;9.098;2023-05-16T14:21:57;12.70;66.90
21108;DHT22;10712;52.944;9.098;2023-05-16T14:24:22;12.70;65.90
21108;DHT22;10712;52.944;9.098;2023-05-16T14:26:48;12.80;66.80
21108;DHT22;10712;52.944;9.098;2023-05-16T14:29:14;12.90;66.90
21108;DHT22;10712;52.944;9.098;2023-05-16T14:31:40;13.00;67.10
21108;DHT22;10712;52.944;9.098;2023-05-16T14:34:06;13.10;66.10
21108;DHT22;10712;52.944;9.098;2023-05-16T14:36:32;13.20;66.90
21108;DHT22;10712;52.944;9.098;2023-05-16T14:38:57;13.30;66.90
21108;DHT22;10712;52.944;9.098;2023-05-16T14:41:23;13.50;65.80
21108;DHT22;10712;52.944;9.098;2023-05-16T14:43:49;13.60;64.80
21108;DHT22;10712;52.944;9.098;2023-05-16T14:46:15;13.70;64.90
21108;DHT22;10712;52.944;9.098;2023-05-16T14:48:41;13.80;64.90
21108;DHT22;10712;52.944;9.098;2023-05-16T14:51:07;13.90;64.40
21108;DHT22;10712;52.944;9.098;2023-05-16T14:53:33;14.00;64.50
21108;DHT22;10712;52.944;9.098;2023-05-16T14:55:59;14.10;64.90
21108;DHT22;10712;52.944;9.098;2023-05-16T14:58:27;14.20;65.00
21108;DHT22;10712;52.944;9.098;2023-05-16T15:00:53;14.20;63.10
21108;DHT22;10712;52.944;9.098;2023-05-16T15:03:18;14.10;63.20
21108;DHT22;10712;52.944;9.098;2023-05-16T15:05:44;13.90;61.80
21108;DHT22;10712;52.944;9.098;2023-05-16T15:08:10;13.80;61.80
21108;DHT22;10712;52.944;9.098;2023-05-16T15:10:36;13.70;62.50
21108;DHT22;10712;52.944;9.098;2023-05-16T15:13:02;13.60;63.10
21108;DHT22;10712;52.944;9.098;2023-05-16T15:15:28;13.60;64.50
21108;DHT22;10712;52.944;9.098;2023-05-16T15:17:54;13.70;63.80
21108;DHT22;10712;52.944;9.098;2023-05-16T15:20:20;13.80;63.40
21108;DHT22;10712;52.944;9.098;2023-05-16T15:22:46;13.80;62.30
21108;DHT22;10712;52.944;9.098;2023-05-16T15:25:13;13.70;62.00
21108;DHT22;10712;52.944;9.098;2023-05-16T15:27:38;13.60;62.70
21108;DHT22;10712;52.944;9.098;2023-05-16T15:30:05;13.50;62.70
21108;DHT22;10712;52.944;9.098;2023-05-16T15:32:31;13.50;63.60
21108;DHT22;10712;52.944;9.098;2023-05-16T15:34:57;13.50;64.10
21108;DHT22;10712;52.944;9.098;2023-05-16T15:37:22;13.60;62.70
21108;DHT22;10712;52.944;9.098;2023-05-16T15:39:48;13.60;62.40
21108;DHT22;10712;52.944;9.098;2023-05-16T15:42:14;13.60;62.60
21108;DHT22;10712;52.944;9.098;2023-05-16T15:44:40;13.60;62.30
21108;DHT22;10712;52.944;9.098;2023-05-16T15:47:06;13.80;62.50
21108;DHT22;10712;52.944;9.098;2023-05-16T15:49:33;13.90;62.40
21108;DHT22;10712;52.944;9.098;2023-05-16T15:51:58;13.90;61.30
21108;DHT22;10712;52.944;9.098;2023-05-16T15:54:24;13.90;61.30
21108;DHT22;10712;52.944;9.098;2023-05-16T15:56:50;13.90;61.40